Time;durP1;ratioP1;P1;durP2;ratioP2;P2;SDS_P1;SDS_P2;PMS_P1;PMS_P2;Temp;Humidity;BMP_temperature;BMP_pressure;BME280_temperature;BME280_humidity;BME280_pressure;Samples;Min_cycle;Max_cycle;Signal;HPM_P1;HPM_P2
2021/10/30 00:00:15;;;;;;;1999.90;999.90;;;14.40;99.90;;;;;;5052417;28;20411;-69
2021/10/30 00:02:41;;;;;;;1999.90;999.90;;;14.40;99.90;;;;;;5052198;28;20232;-69
2021/10/30 00:05:09;;;;;;;1999.90;999.90;;;14.30;99.90;;;;;;5051994;28;20803;-69
2021/10/30 00:07:35;;;;;;;1999.90;999.90;;;14.30;99.90;;;;;;5051241;28;20468;-69
2021/10/30 00:10:04;;;;;;;1999.90;999.90;;;14.20;99.90;;;;;;5052205;28;20409;-69
2021/10/30 00:12:31;;;;;;;1999.90;999.90;;;14.20;99.90;;;;;;5052070;28;20411;-69
2021/10/30 00:14:56;;;;;;;1999.90;999.90;;;14.10;99.90;;;;;;5051781;28;20424;-69
2021/10/30 00:17:22;;;;;;;1999.90;999.90;;;14.00;99.90;;;;;;5052114;28;20459;-69
2021/10/30 00:19:48;;;;;;;1999.90;999.90;;;14.10;99.90;;;;;;5052077;28;20165;-69
2021/10/30 00:22:13;;;;;;;1999.90;999.90;;;14.10;99.90;;;;;;5051881;28;20196;-69
2021/10/30 00:24:39;;;;;;;1999.90;999.90;;;14.10;99.90;;;;;;5051644;28;20194;-69
2021/10/30 00:27:06;;;;;;;1999.90;999.90;;;14.00;99.90;;;;;;5052042;28;20164;-69
2021/10/30 00:29:32;;;;;;;1999.90;999.90;;;14.00;99.90;;;;;;5052012;28;20168;-69
2021/10/30 00:31:57;;;;;;;1999.90;999.90;;;14.00;99.90;;;;;;5051911;28;20406;-69
2021/10/30 00:34:23;;;;;;;1999.90;999.90;;;13.90;99.90;;;;;;5051660;28;20426;-69
2021/10/30 00:36:50;;;;;;;1999.90;999.90;;;13.90;99.90;;;;;;5051732;28;20169;-69
2021/10/30 00:39:16;;;;;;;1999.90;999.90;;;14.00;99.90;;;;;;5051857;28;20402;-69
2021/10/30 00:42:00;;;;;;;1999.90;999.90;;;14.00;99.90;;;;;;5051736;28;20520;-69
2021/10/30 00:44:25;;;;;;;1999.90;999.90;;;14.00;99.90;;;;;;5051532;28;20422;-69
2021/10/30 00:46:52;;;;;;;1999.90;999.90;;;14.00;99.90;;;;;;5051603;28;20741;-69
2021/10/30 00:49:20;;;;;;;1999.90;999.90;;;13.90;99.90;;;;;;5051799;28;20526;-69
2021/10/30 00:51:50;;;;;;;1999.90;999.90;;;14.00;99.90;;;;;;5051782;28;20768;-69
2021/10/30 00:54:17;;;;;;;1999.90;999.90;;;13.90;99.90;;;;;;5051410;28;20439;-69
2021/10/30 00:56:44;;;;;;;1999.90;999.90;;;13.90;99.90;;;;;;5051449;28;20816;-69
2021/10/30 00:59:15;;;;;;;1999.90;999.90;;;13.90;99.90;;;;;;5051604;28;20773;-69
2021/10/30 01:01:43;;;;;;;1999.90;999.90;;;13.80;99.90;;;;;;5052007;28;20496;-69
2021/10/30 01:04:09;;;;;;;1999.90;999.90;;;13.80;99.90;;;;;;5051523;28;21143;-69
2021/10/30 01:06:38;;;;;;;1999.90;999.90;;;13.80;99.90;;;;;;5051340;28;20413;-69
2021/10/30 01:09:05;;;;;;;1999.90;999.90;;;13.80;99.90;;;;;;5051580;28;20401;-69
2021/10/30 01:11:31;;;;;;;1999.90;999.90;;;13.70;99.90;;;;;;5051537;28;20417;-69
2021/10/30 01:13:58;;;;;;;1999.90;999.90;;;13.70;99.90;;;;;;5051371;28;20414;-69
2021/10/30 01:16:23;;;;;;;1999.90;999.90;;;13.70;99.90;;;;;;5033370;28;20417;-69
2021/10/30 01:18:50;;;;;;;1999.90;999.90;;;13.60;99.90;;;;;;5052002;28;20855;-69
2021/10/30 01:21:27;;;;;;;1999.90;999.90;;;13.60;99.90;;;;;;5055379;28;20171;-69
2021/10/30 01:23:53;;;;;;;1999.90;999.90;;;13.60;99.90;;;;;;5055249;28;20432;-69
2021/10/30 01:26:23;;;;;;;1999.90;999.90;;;13.60;99.90;;;;;;5055003;28;20942;-70
2021/10/30 01:28:50;;;;;;;1999.90;999.90;;;13.60;99.90;;;;;;5055206;28;20903;-69
2021/10/30 01:31:16;;;;;;;1999.90;999.90;;;13.50;99.90;;;;;;5055199;28;20460;-69
2021/10/30 01:33:45;;;;;;;1999.90;999.90;;;13.60;99.90;;;;;;5054992;28;20476;-69
2021/10/30 01:36:12;;;;;;;1999.90;999.90;;;13.50;99.90;;;;;;5054804;28;20934;-69
2021/10/30 01:38:38;;;;;;;1999.90;999.90;;;13.50;99.90;;;;;;5055075;28;20539;-69
2021/10/30 01:41:04;;;;;;;1999.90;999.90;;;13.50;99.90;;;;;;5054934;28;20405;-69
2021/10/30 01:43:30;;;;;;;1999.90;999.90;;;13.50;99.90;;;;;;5054760;28;20211;-69
2021/10/30 01:45:56;;;;;;;1999.90;999.90;;;13.40;99.90;;;;;;5054698;28;20904;-69
2021/10/30 01:48:36;;;;;;;1999.90;999.90;;;13.50;99.90;;;;;;5054847;28;20408;-69
2021/10/30 01:51:03;;;;;;;1999.90;999.90;;;13.40;99.90;;;;;;5054896;28;20175;-69
2021/10/30 01:53:29;;;;;;;1999.90;999.90;;;13.40;99.90;;;;;;5054457;28;20815;-69
2021/10/30 01:55:55;;;;;;;1999.90;999.90;;;13.30;99.90;;;;;;5054467;28;20396;-69
2021/10/30 01:58:21;;;;;;;1999.90;999.90;;;13.30;99.90;;;;;;5054656;28;20176;-69
2021/10/30 02:00:48;;;;;;;1999.90;999.90;;;13.30;99.90;;;;;;5054590;28;20418;-69
2021/10/30 02:03:14;;;;;;;1999.90;999.90;;;13.30;99.90;;;;;;5054400;28;20211;-69
2021/10/30 02:05:40;;;;;;;1999.90;999.90;;;13.20;99.90;;;;;;5054248;28;20920;-69
2021/10/30 02:08:06;;;;;;;1999.90;999.90;;;13.20;99.90;;;;;;5054468;28;20533;-69
2021/10/30 02:10:32;;;;;;;1999.90;999.90;;;13.20;99.90;;;;;;5054407;28;20402;-69
2021/10/30 02:12:58;;;;;;;1999.90;999.90;;;13.10;99.90;;;;;;5054247;28;20418;-69
2021/10/30 02:15:24;;;;;;;1999.90;999.90;;;13.20;99.90;;;;;;5054072;28;20406;-69
2021/10/30 02:17:50;;;;;;;1999.90;999.90;;;13.10;99.90;;;;;;5054310;28;20410;-69
2021/10/30 02:20:16;;;;;;;1999.90;999.90;;;13.10;99.90;;;;;;5053566;28;20412;-69
2021/10/30 02:22:42;;;;;;;1999.90;999.90;;;13.10;99.90;;;;;;5054089;28;20678;-69
2021/10/30 02:25:09;;;;;;;1999.90;999.90;;;13.00;99.90;;;;;;5053811;28;20274;-69
2021/10/30 02:27:35;;;;;;;1999.90;999.90;;;13.00;99.90;;;;;;5054084;28;20464;-69
2021/10/30 02:30:02;;;;;;;1999.90;999.90;;;13.00;99.90;;;;;;5053535;28;20459;-69
2021/10/30 02:32:28;;;;;;;1999.90;999.90;;;13.00;99.90;;;;;;5053421;28;20442;-69
2021/10/30 02:34:53;;;;;;;1999.90;999.90;;;13.00;99.90;;;;;;5053706;28;20871;-69
2021/10/30 02:37:19;;;;;;;1999.90;999.90;;;13.00;99.90;;;;;;5053985;28;20180;-69
2021/10/30 02:39:45;;;;;;;1999.90;999.90;;;13.10;99.90;;;;;;5053979;28;20184;-69
2021/10/30 02:42:11;;;;;;;1999.90;999.90;;;13.10;99.90;;;;;;5053769;28;20746;-69
2021/10/30 02:44:37;;;;;;;1999.90;999.90;;;13.10;99.90;;;;;;5053543;28;20684;-69
2021/10/30 02:47:03;;;;;;;1999.90;999.90;;;13.10;99.90;;;;;;5053652;28;20466;-69
2021/10/30 02:49:30;;;;;;;1999.90;999.90;;;13.10;99.90;;;;;;5053655;28;20699;-69
2021/10/30 02:51:55;;;;;;;1999.90;999.90;;;13.10;99.90;;;;;;5053753;28;20413;-69
2021/10/30 02:54:21;;;;;;;1999.90;999.90;;;13.10;99.90;;;;;;5053864;28;20541;-69
2021/10/30 02:56:47;;;;;;;1999.90;999.90;;;13.10;99.90;;;;;;5053297;28;20168;-69
2021/10/30 02:59:13;;;;;;;1999.90;999.90;;;13.10;99.90;;;;;;5053980;28;20171;-69
2021/10/30 03:01:39;;;;;;;1999.90;999.90;;;13.00;99.90;;;;;;5053377;28;20450;-69
2021/10/30 03:04:04;;;;;;;1999.90;999.90;;;13.10;99.90;;;;;;5053365;28;20202;-69
2021/10/30 03:06:31;;;;;;;1999.90;999.90;;;13.10;99.90;;;;;;5053134;28;20175;-69
2021/10/30 03:08:57;;;;;;;1999.90;999.90;;;13.10;99.90;;;;;;5053326;28;20637;-70
2021/10/30 03:11:23;;;;;;;1999.90;999.90;;;13.10;99.90;;;;;;5053288;28;20421;-69
2021/10/30 03:13:49;;;;;;;1999.90;999.90;;;13.10;99.90;;;;;;5053141;28;20835;-69
2021/10/30 03:16:14;;;;;;;1999.90;999.90;;;13.20;99.90;;;;;;5052941;28;20182;-69
2021/10/30 03:18:40;;;;;;;1999.90;999.90;;;13.20;99.90;;;;;;5053394;28;20180;-69
2021/10/30 03:21:06;;;;;;;1999.90;999.90;;;13.20;99.90;;;;;;5053216;28;20178;-69
2021/10/30 03:23:32;;;;;;;1999.90;999.90;;;13.10;99.90;;;;;;5052879;28;20200;-70
2021/10/30 03:25:57;;;;;;;1999.90;999.90;;;13.10;99.90;;;;;;5052702;28;20469;-69
2021/10/30 03:28:23;;;;;;;1999.90;999.90;;;13.10;99.90;;;;;;5052976;28;20175;-69
2021/10/30 03:30:49;;;;;;;1999.90;999.90;;;13.10;99.90;;;;;;5052837;28;20241;-69
2021/10/30 03:33:14;;;;;;;1999.90;999.90;;;13.10;99.90;;;;;;5052811;28;20215;-69
2021/10/30 03:35:40;;;;;;;1999.90;999.90;;;13.20;99.90;;;;;;5052704;28;20188;-69
2021/10/30 03:38:06;;;;;;;1999.90;999.90;;;13.10;99.90;;;;;;5052808;28;20173;-69
2021/10/30 03:40:32;;;;;;;1999.90;999.90;;;13.10;99.90;;;;;;5052706;28;20180;-69
2021/10/30 03:42:57;;;;;;;1999.90;999.90;;;13.10;99.90;;;;;;5052261;28;20445;-69
2021/10/30 03:45:24;;;;;;;1999.90;999.90;;;13.00;99.90;;;;;;5052385;28;20252;-69
2021/10/30 03:47:50;;;;;;;1999.90;999.90;;;13.00;99.90;;;;;;5052605;28;20172;-69
2021/10/30 03:50:15;;;;;;;1999.90;999.90;;;13.00;99.90;;;;;;5052554;28;20406;-69
2021/10/30 03:52:41;;;;;;;1999.90;999.90;;;13.10;99.90;;;;;;5052456;28;20407;-69
2021/10/30 03:55:07;;;;;;;1999.90;999.90;;;13.00;99.90;;;;;;5052054;28;20235;-69
2021/10/30 03:57:32;;;;;;;1999.90;999.90;;;13.10;99.90;;;;;;5052344;28;20177;-69
2021/10/30 03:59:59;;;;;;;1999.90;999.90;;;13.10;99.90;;;;;;5052367;28;20840;-69
2021/10/30 04:02:24;;;;;;;1999.90;999.90;;;13.10;99.90;;;;;;5052229;28;20206;-69
2021/10/30 04:04:50;;;;;;;1999.90;999.90;;;13.10;99.90;;;;;;5052038;28;20518;-69
2021/10/30 04:07:16;;;;;;;1999.90;999.90;;;13.20;99.90;;;;;;5052233;28;20192;-69
2021/10/30 04:09:42;;;;;;;1999.90;999.90;;;13.10;99.90;;;;;;5052169;28;20167;-70
2021/10/30 04:12:09;;;;;;;1999.90;999.90;;;13.20;99.90;;;;;;5052180;28;20431;-68
2021/10/30 04:14:34;;;;;;;1999.90;999.90;;;13.20;99.90;;;;;;5051941;28;20444;-69
2021/10/30 04:17:00;;;;;;;1999.90;999.90;;;13.30;99.90;;;;;;5051889;28;20408;-69
2021/10/30 04:19:26;;;;;;;1999.90;999.90;;;13.30;99.90;;;;;;5052111;28;20657;-69
2021/10/30 04:21:51;;;;;;;1999.90;999.90;;;13.40;99.90;;;;;;5051995;28;20199;-69
2021/10/30 04:24:17;;;;;;;1999.90;999.90;;;13.30;99.90;;;;;;5051927;28;20188;-69
2021/10/30 04:26:42;;;;;;;1999.90;999.90;;;13.30;99.90;;;;;;5051712;28;20179;-69
2021/10/30 04:29:08;;;;;;;1999.90;999.90;;;13.40;99.90;;;;;;5052017;28;20168;-69
2021/10/30 04:31:34;;;;;;;1999.90;999.90;;;13.40;99.90;;;;;;5051983;28;20838;-69
2021/10/30 04:34:04;;;;;;;1999.90;999.90;;;13.50;99.90;;;;;;5051974;28;20221;-69
2021/10/30 04:36:33;;;;;;;1999.90;999.90;;;13.50;99.90;;;;;;5051733;28;20400;-69
2021/10/30 04:39:03;;;;;;;1999.90;999.90;;;13.50;99.90;;;;;;5051834;28;20412;-69
2021/10/30 04:41:29;;;;;;;1999.90;999.90;;;13.60;99.90;;;;;;5051706;28;20403;-69
2021/10/30 04:43:56;;;;;;;1999.90;999.90;;;13.60;99.90;;;;;;5051721;28;20567;-69
2021/10/30 04:46:23;;;;;;;1999.90;999.90;;;13.60;99.90;;;;;;5051488;28;20398;-69
2021/10/30 04:48:49;;;;;;;1999.90;999.90;;;13.60;99.90;;;;;;5051750;28;20420;-69
2021/10/30 04:51:15;;;;;;;1999.90;999.90;;;13.60;99.90;;;;;;5051714;28;20410;-69
2021/10/30 04:53:43;;;;;;;1999.90;999.90;;;13.50;99.90;;;;;;5051781;28;20450;-69
2021/10/30 04:56:09;;;;;;;1999.90;999.90;;;13.50;99.90;;;;;;5055572;28;20469;-69
2021/10/30 04:58:41;;;;;;;1999.90;999.90;;;13.60;99.90;;;;;;5055961;28;20403;-69
2021/10/30 05:01:07;;;;;;;1999.90;999.90;;;13.60;99.90;;;;;;5055802;28;20404;-69
2021/10/30 05:03:33;;;;;;;1999.90;999.90;;;13.70;99.90;;;;;;5055552;28;20528;-69
2021/10/30 05:05:58;;;;;;;1999.90;999.90;;;13.70;99.90;;;;;;5055403;28;20518;-69
2021/10/30 05:08:24;;;;;;;1999.90;999.90;;;13.70;99.90;;;;;;5055526;28;20173;-69
2021/10/30 05:10:50;;;;;;;1999.90;999.90;;;13.80;99.90;;;;;;5055534;28;20160;-70
2021/10/30 05:13:15;;;;;;;1999.90;999.90;;;13.90;99.90;;;;;;5055420;28;20203;-69
2021/10/30 05:15:41;;;;;;;1999.90;999.90;;;13.90;99.90;;;;;;5055302;28;20238;-69
2021/10/30 05:18:07;;;;;;;1999.90;999.90;;;13.90;99.90;;;;;;5055487;28;20523;-69
2021/10/30 05:20:32;;;;;;;1999.90;999.90;;;14.00;99.90;;;;;;5055402;28;20181;-69
2021/10/30 05:22:58;;;;;;;1999.90;999.90;;;13.90;99.90;;;;;;5055100;28;20618;-69
2021/10/30 05:25:24;;;;;;;1999.90;999.90;;;14.00;99.90;;;;;;5055101;28;20164;-69
2021/10/30 05:27:50;;;;;;;1999.90;999.90;;;14.00;99.90;;;;;;5055407;28;20199;-69
2021/10/30 05:30:15;;;;;;;1999.90;999.90;;;14.00;99.90;;;;;;5055261;28;20783;-69
2021/10/30 05:32:41;;;;;;;1999.90;999.90;;;14.00;99.90;;;;;;5055215;28;20175;-69
2021/10/30 05:35:07;;;;;;;1999.90;999.90;;;14.00;99.90;;;;;;5054848;28;20566;-69
2021/10/30 05:37:33;;;;;;;1999.90;999.90;;;14.00;99.90;;;;;;5054994;28;20202;-70
2021/10/30 05:39:59;;;;;;;1999.90;999.90;;;14.00;99.90;;;;;;5054984;28;20411;-71
2021/10/30 05:42:25;;;;;;;1999.90;999.90;;;14.00;99.90;;;;;;5054931;28;20256;-70
2021/10/30 05:44:51;;;;;;;1999.90;999.90;;;13.90;99.90;;;;;;5054838;28;20442;-70
2021/10/30 05:47:17;;;;;;;1999.90;999.90;;;13.90;99.90;;;;;;5054718;28;20638;-70
2021/10/30 05:49:44;;;;;;;1999.90;999.90;;;13.90;99.90;;;;;;5054838;28;20483;-70
2021/10/30 05:52:11;;;;;;;1999.90;999.90;;;13.90;99.90;;;;;;5054696;28;20410;-70
2021/10/30 05:54:38;;;;;;;1999.90;999.90;;;13.90;99.90;;;;;;5054503;28;20807;-70
2021/10/30 05:57:04;;;;;;;1999.90;999.90;;;13.90;99.90;;;;;;5054496;28;20419;-70
2021/10/30 05:59:30;;;;;;;1999.90;999.90;;;14.00;99.90;;;;;;5054687;28;20414;-70
2021/10/30 06:01:56;;;;;;;1999.90;999.90;;;14.00;99.90;;;;;;5054542;28;21017;-70
2021/10/30 06:04:22;;;;;;;1999.90;999.90;;;14.00;99.90;;;;;;5054546;28;20479;-70
2021/10/30 06:06:48;;;;;;;1999.90;999.90;;;14.00;99.90;;;;;;5054099;28;20418;-70
2021/10/30 06:09:14;;;;;;;1999.90;999.90;;;14.00;99.90;;;;;;5054526;28;20231;-70
2021/10/30 06:11:40;;;;;;;1999.90;999.90;;;14.00;99.90;;;;;;5054460;28;20410;-70
2021/10/30 06:14:06;;;;;;;1999.90;999.90;;;14.00;99.90;;;;;;5054304;28;20477;-71
2021/10/30 06:16:34;;;;;;;1999.90;999.90;;;14.00;99.90;;;;;;5054106;28;20880;-71
2021/10/30 06:19:00;;;;;;;1999.90;999.90;;;14.00;99.90;;;;;;5054338;28;20533;-71
2021/10/30 06:21:27;;;;;;;1999.90;999.90;;;14.00;99.90;;;;;;5054055;28;20545;-70
2021/10/30 06:23:59;;;;;;;1999.90;999.90;;;14.00;99.90;;;;;;5036340;28;20200;-70
2021/10/30 06:26:27;;;;;;;1999.90;999.90;;;14.10;99.90;;;;;;5054229;28;20910;-70
2021/10/30 06:28:53;;;;;;;1999.90;999.90;;;14.10;99.90;;;;;;5054150;28;20489;-70
2021/10/30 06:31:20;;;;;;;1999.90;999.90;;;14.30;99.90;;;;;;5054080;28;21000;-70
2021/10/30 06:33:45;;;;;;;1999.90;999.90;;;14.30;99.90;;;;;;5053921;28;20436;-70
2021/10/30 06:36:11;;;;;;;1999.90;999.90;;;14.40;99.90;;;;;;5053641;28;20505;-70
2021/10/30 06:38:37;;;;;;;1999.90;999.90;;;14.50;99.90;;;;;;5053977;28;20177;-70
2021/10/30 06:41:05;;;;;;;1999.90;999.90;;;14.50;99.90;;;;;;5053904;28;20165;-70
2021/10/30 06:43:31;;;;;;;1999.90;999.90;;;14.50;99.90;;;;;;5053680;28;20456;-70
2021/10/30 06:45:57;;;;;;;1999.90;999.90;;;14.60;99.90;;;;;;5053574;28;20410;-70
2021/10/30 06:48:24;;;;;;;1999.90;999.90;;;14.60;99.90;;;;;;5053768;28;20478;-70
2021/10/30 06:50:50;;;;;;;1999.90;999.90;;;14.60;99.90;;;;;;5053755;28;20168;-70
2021/10/30 06:53:16;;;;;;;1999.90;999.90;;;14.60;99.90;;;;;;5053444;28;20432;-70
2021/10/30 06:55:43;;;;;;;1999.90;999.90;;;14.70;99.90;;;;;;5053452;28;20532;-70
2021/10/30 06:58:08;;;;;;;1999.90;999.90;;;14.70;99.90;;;;;;5053497;28;20172;-70
2021/10/30 07:00:34;;;;;;;1999.90;999.90;;;14.70;99.90;;;;;;5053519;28;20818;-70
2021/10/30 07:03:00;;;;;;;1999.90;999.90;;;14.70;99.90;;;;;;5053256;28;20201;-70
2021/10/30 07:05:26;;;;;;;1999.90;999.90;;;14.70;99.90;;;;;;5052972;28;20252;-70
2021/10/30 07:07:51;;;;;;;1999.90;999.90;;;14.70;99.90;;;;;;5053423;28;20401;-71
2021/10/30 07:10:17;;;;;;;1999.90;999.90;;;14.70;99.90;;;;;;5053316;28;20600;-70
2021/10/30 07:12:43;;;;;;;1999.90;999.90;;;14.70;99.90;;;;;;5053241;28;20182;-71
2021/10/30 07:15:12;;;;;;;1999.90;999.90;;;14.70;99.90;;;;;;5052889;28;20427;-70
2021/10/30 07:17:38;;;;;;;1999.90;999.90;;;14.70;99.90;;;;;;5052617;28;20415;-70
2021/10/30 07:20:06;;;;;;;1999.90;999.90;;;14.70;99.90;;;;;;5053140;28;20419;-70
2021/10/30 07:22:38;;;;;;;1999.90;999.90;;;14.70;99.90;;;;;;5052983;28;20522;-70
2021/10/30 07:25:04;;;;;;;1999.90;999.90;;;14.70;99.90;;;;;;5052911;28;20816;-70
2021/10/30 07:27:30;;;;;;;1999.90;999.90;;;14.70;99.90;;;;;;5052915;28;20418;-70
2021/10/30 07:29:56;;;;;;;1999.90;999.90;;;14.60;99.90;;;;;;5052861;28;20402;-70
2021/10/30 07:32:22;;;;;;;1999.90;999.90;;;14.60;99.90;;;;;;5052853;28;20535;-70
2021/10/30 07:34:47;;;;;;;1999.90;999.90;;;14.60;99.90;;;;;;5052769;28;20218;-70
2021/10/30 07:37:13;;;;;;;1999.90;999.90;;;14.60;99.90;;;;;;5052615;28;20404;-70
2021/10/30 07:39:38;;;;;;;1999.90;999.90;;;14.50;99.90;;;;;;5052759;28;20689;-70
2021/10/30 07:42:05;;;;;;;1999.90;999.90;;;14.50;99.90;;;;;;5052682;28;20282;-70
2021/10/30 07:44:31;;;;;;;1999.90;999.90;;;14.50;99.90;;;;;;5052558;28;20238;-70
2021/10/30 07:46:57;;;;;;;1999.90;999.90;;;14.50;99.90;;;;;;5052308;28;20405;-70
2021/10/30 07:49:22;;;;;;;1999.90;999.90;;;14.60;99.90;;;;;;5052540;28;20585;-70
2021/10/30 07:51:48;;;;;;;1999.90;999.90;;;14.60;99.90;;;;;;5052600;28;20172;-70
2021/10/30 07:54:14;;;;;;;1999.90;999.90;;;14.60;99.90;;;;;;5052292;28;20242;-70
2021/10/30 07:56:39;;;;;;;1999.90;999.90;;;14.60;99.90;;;;;;5052259;28;20193;-70
2021/10/30 07:59:05;;;;;;;1999.90;999.90;;;14.70;99.90;;;;;;5052505;28;20662;-69
2021/10/30 08:01:31;;;;;;;1999.90;999.90;;;14.70;99.90;;;;;;5052339;28;20176;-69
2021/10/30 08:03:56;;;;;;;1999.90;999.90;;;14.70;99.90;;;;;;5052293;28;20188;-69
2021/10/30 08:06:22;;;;;;;1999.90;999.90;;;14.70;99.90;;;;;;5052119;28;20249;-69
2021/10/30 08:08:47;;;;;;;1999.90;999.90;;;14.70;99.90;;;;;;5052386;28;20172;-69
2021/10/30 08:11:13;;;;;;;1999.90;999.90;;;14.70;99.90;;;;;;5052372;28;20738;-69
2021/10/30 08:13:39;;;;;;;1999.90;999.90;;;14.80;99.90;;;;;;5052211;28;20191;-69
2021/10/30 08:16:04;;;;;;;1999.90;999.90;;;14.80;99.90;;;;;;5051876;28;20174;-69
2021/10/30 08:18:30;;;;;;;1999.90;999.90;;;14.90;99.90;;;;;;5052161;28;20177;-69
2021/10/30 08:20:56;;;;;;;1999.90;999.90;;;14.90;99.90;;;;;;5052206;28;20637;-69
2021/10/30 08:23:21;;;;;;;1999.90;999.90;;;15.00;99.90;;;;;;5051927;28;20238;-69
2021/10/30 08:25:47;;;;;;;1999.90;999.90;;;15.00;99.90;;;;;;5051865;28;20171;-69
2021/10/30 08:28:13;;;;;;;1999.90;999.90;;;14.90;99.90;;;;;;5051390;28;20164;-69
2021/10/30 08:30:38;;;;;;;1999.90;999.90;;;15.00;99.90;;;;;;5051775;28;20671;-70
2021/10/30 08:33:08;;;;;;;1999.90;999.90;;;15.00;99.90;;;;;;5051840;28;20203;-70
2021/10/30 08:35:33;;;;;;;1999.90;999.90;;;15.00;99.90;;;;;;5051819;28;20169;-69
2021/10/30 08:37:59;;;;;;;1999.90;999.90;;;14.90;99.90;;;;;;5051940;28;20427;-69
2021/10/30 08:40:25;;;;;;;1999.90;999.90;;;14.90;99.90;;;;;;5051958;28;20186;-69
2021/10/30 08:42:51;;;;;;;1999.90;999.90;;;14.90;99.90;;;;;;5051791;28;20195;-69
2021/10/30 08:45:17;;;;;;;1999.90;999.90;;;14.90;99.90;;;;;;5051534;28;20646;-69
2021/10/30 08:47:46;;;;;;;1999.90;999.90;;;14.90;99.90;;;;;;5051835;28;20412;-70
2021/10/30 08:50:13;;;;;;;1999.90;999.90;;;14.90;99.90;;;;;;5051866;28;20405;-69
2021/10/30 08:52:39;;;;;;;1999.90;999.90;;;14.90;99.90;;;;;;5051733;28;20412;-69
2021/10/30 08:55:06;;;;;;;1999.90;999.90;;;14.90;99.90;;;;;;5047963;28;20520;-68
2021/10/30 08:57:33;;;;;;;1999.90;999.90;;;14.90;99.90;;;;;;5049380;28;20192;-69
2021/10/30 09:00:25;;;;;;;1999.90;999.90;;;14.90;99.90;;;;;;5044782;28;20443;-70
2021/10/30 09:02:56;;;;;;;1999.90;999.90;;;14.90;99.90;;;;;;5045122;28;20468;-68
2021/10/30 09:05:23;;;;;;;1999.90;999.90;;;14.90;99.90;;;;;;5047973;28;20420;-68
2021/10/30 09:07:55;;;;;;;1999.90;999.90;;;14.90;99.90;;;;;;5048505;28;21305;-68
2021/10/30 09:10:26;;;;;;;1999.90;999.90;;;15.00;99.90;;;;;;5045023;28;20516;-68
2021/10/30 09:12:57;;;;;;;1999.90;999.90;;;14.90;99.90;;;;;;5043022;28;20425;-68
2021/10/30 09:15:38;;;;;;;1999.90;999.90;;;14.90;99.90;;;;;;5036863;28;20430;-72
2021/10/30 09:18:25;;;;;;;1999.90;999.90;;;15.00;99.90;;;;;;5045231;28;20411;-67
2021/10/30 09:20:52;;;;;;;1999.90;999.90;;;15.00;99.90;;;;;;5037036;28;20466;-67
2021/10/30 09:23:22;;;;;;;1999.90;999.90;;;15.10;99.90;;;;;;5029067;28;20464;-68
2021/10/30 09:25:55;;;;;;;1999.90;999.90;;;15.10;99.90;;;;;;5028937;28;20778;-67
2021/10/30 09:28:24;;;;;;;1999.90;999.90;;;15.10;99.90;;;;;;5029660;28;20500;-67
2021/10/30 09:30:58;;;;;;;1999.90;999.90;;;15.10;99.90;;;;;;5037338;28;20415;-67
2021/10/30 09:33:26;;;;;;;1999.90;999.90;;;15.10;99.90;;;;;;5046961;28;20475;-66
2021/10/30 09:35:52;;;;;;;1999.90;999.90;;;15.10;99.90;;;;;;5048791;28;20981;-67
2021/10/30 09:38:30;;;;;;;1999.90;999.90;;;15.10;99.90;;;;;;5049171;28;20460;-67
2021/10/30 09:40:57;;;;;;;1999.90;999.90;;;15.10;99.90;;;;;;5031638;28;20209;-67
2021/10/30 09:43:23;;;;;;;1999.90;999.90;;;15.10;99.90;;;;;;5032529;28;20475;-68
2021/10/30 09:45:51;;;;;;;1999.90;999.90;;;15.10;99.90;;;;;;5032619;28;20493;-68
2021/10/30 09:48:23;;;;;;;1999.90;999.90;;;15.20;99.90;;;;;;5032930;28;20396;-67
2021/10/30 09:50:54;;;;;;;1999.90;999.90;;;15.10;99.90;;;;;;5032235;28;20893;-68
2021/10/30 09:53:33;;;;;;;1999.90;999.90;;;15.10;99.90;;;;;;5032705;28;20469;-67
2021/10/30 09:56:11;;;;;;;1999.90;999.90;;;15.20;99.90;;;;;;5032504;28;20428;-67
2021/10/30 09:58:42;;;;;;;1999.90;999.90;;;15.10;99.90;;;;;;5032591;28;20910;-67
2021/10/30 10:01:15;;;;;;;1999.90;999.90;;;15.20;99.90;;;;;;5032669;28;20466;-67
2021/10/30 10:03:42;;;;;;;1999.90;999.90;;;15.20;99.90;;;;;;5035951;28;20462;-67
2021/10/30 10:06:10;;;;;;;1999.90;999.90;;;15.30;99.90;;;;;;5043582;28;20414;-67
2021/10/30 10:08:38;;;;;;;1999.90;999.90;;;15.30;99.90;;;;;;5052575;28;20494;-68
2021/10/30 10:11:07;;;;;;;1999.90;999.90;;;15.20;99.90;;;;;;5052071;28;20496;-68
2021/10/30 10:13:38;;;;;;;1999.90;999.90;;;15.20;99.90;;;;;;5041533;28;20438;-68
2021/10/30 10:16:05;;;;;;;1999.90;999.90;;;15.20;99.90;;;;;;5032462;28;20447;-68
2021/10/30 10:18:36;;;;;;;1999.90;999.90;;;15.20;99.90;;;;;;5032493;28;20869;-67
2021/10/30 10:21:03;;;;;;;1999.90;999.90;;;15.30;99.90;;;;;;5032025;28;20763;-68
2021/10/30 10:23:28;;;;;;;1999.90;999.90;;;15.30;99.90;;;;;;5032180;28;20837;-67
2021/10/30 10:25:55;;;;;;;1999.90;999.90;;;15.30;99.90;;;;;;5031808;28;20414;-67
2021/10/30 10:28:32;;;;;;;1999.90;999.90;;;15.30;99.90;;;;;;5031956;28;20169;-68
2021/10/30 10:30:59;;;;;;;1999.90;999.90;;;15.30;99.90;;;;;;5032118;28;20425;-67
2021/10/30 10:33:27;;;;;;;1999.90;999.90;;;15.30;99.90;;;;;;5032163;28;20442;-67
2021/10/30 10:36:18;;;;;;;1999.90;999.90;;;15.30;99.90;;;;;;5031533;28;20419;-68
2021/10/30 10:38:53;;;;;;;1999.90;999.90;;;15.30;99.90;;;;;;5032206;28;20414;-67
2021/10/30 10:41:37;;;;;;;1999.90;999.90;;;15.30;99.90;;;;;;5031448;28;20409;-67
2021/10/30 10:44:06;;;;;;;1999.90;999.90;;;15.40;99.90;;;;;;5031015;28;20437;-67
2021/10/30 10:46:32;;;;;;;1999.90;999.90;;;15.30;99.90;;;;;;5031421;28;20469;-67
2021/10/30 10:49:42;;;;;;;1999.90;999.90;;;15.30;99.90;;;;;;5031719;28;20410;-68
2021/10/30 10:54:54;;;;;;;1999.90;999.90;;;15.30;99.90;;;;;;5031820;28;20463;-67
2021/10/30 10:57:36;;;;;;;1999.90;999.90;;;15.30;99.90;;;;;;5031085;28;20502;-67
2021/10/30 11:00:08;;;;;;;1999.90;999.90;;;15.30;99.90;;;;;;5031533;28;20419;-68
2021/10/30 11:03:00;;;;;;;1999.90;999.90;;;15.30;99.90;;;;;;5031674;28;20454;-68
2021/10/30 11:05:35;;;;;;;1999.90;999.90;;;15.20;99.90;;;;;;5026784;28;20453;-67
2021/10/30 11:08:01;;;;;;;1999.90;999.90;;;15.20;99.90;;;;;;5031798;28;20891;-68
2021/10/30 11:10:34;;;;;;;1999.90;999.90;;;15.30;99.90;;;;;;5031605;28;20412;-67
2021/10/30 11:13:06;;;;;;;1999.90;999.90;;;15.20;99.90;;;;;;5036924;28;20297;-67
2021/10/30 11:15:54;;;;;;;1999.90;999.90;;;15.20;99.90;;;;;;5042690;28;20759;-67
2021/10/30 11:18:25;;;;;;;1999.90;999.90;;;15.10;99.90;;;;;;5051215;28;20426;-67
2021/10/30 11:21:11;;;;;;;1999.90;999.90;;;15.20;99.90;;;;;;5045588;28;20505;-67
2021/10/30 11:24:16;;;;;;;1999.90;999.90;;;15.20;99.90;;;;;;5031117;28;20466;-67
2021/10/30 11:26:41;;;;;;;1999.90;999.90;;;15.20;99.90;;;;;;5030760;28;20408;-68
2021/10/30 11:29:09;;;;;;;1999.90;999.90;;;15.20;99.90;;;;;;5030977;28;20414;-67
2021/10/30 11:31:36;;;;;;;1999.90;999.90;;;15.20;99.90;;;;;;5030774;28;20251;-67
2021/10/30 11:34:05;;;;;;;1999.90;999.90;;;15.20;99.90;;;;;;5030750;28;20423;-67
2021/10/30 11:36:31;;;;;;;1999.90;999.90;;;15.30;99.90;;;;;;5030942;28;20417;-67
2021/10/30 11:38:59;;;;;;;1999.90;999.90;;;15.30;99.90;;;;;;5030936;28;20407;-67
2021/10/30 11:41:30;;;;;;;1999.90;999.90;;;15.30;99.90;;;;;;5030654;28;20414;-68
2021/10/30 11:43:59;;;;;;;1999.90;999.90;;;15.30;99.90;;;;;;5030718;28;20497;-68
2021/10/30 11:46:25;;;;;;;1999.90;999.90;;;15.40;99.90;;;;;;5030188;28;20442;-67
2021/10/30 11:48:57;;;;;;;1999.90;999.90;;;15.40;99.90;;;;;;5030622;28;20510;-68
2021/10/30 11:51:44;;;;;;;1999.90;999.90;;;15.40;99.90;;;;;;5030475;28;20414;-68
2021/10/30 11:54:12;;;;;;;1999.90;999.90;;;15.40;99.90;;;;;;5030209;28;20452;-67
2021/10/30 11:56:39;;;;;;;1999.90;999.90;;;15.30;99.90;;;;;;5029902;28;20417;-67
2021/10/30 11:59:07;;;;;;;1999.90;999.90;;;15.30;99.90;;;;;;5030454;28;20441;-68
2021/10/30 12:01:39;;;;;;;1999.90;999.90;;;15.30;99.90;;;;;;5030752;28;20851;-67
2021/10/30 12:04:36;;;;;;;1999.90;999.90;;;15.30;99.90;;;;;;5029964;28;20433;-68